createdAt,value
2018-06-28T00:02:10.020Z,84.44
2018-06-28T00:04:39.027Z,84.85
2018-06-28T00:07:08.080Z,84.40
2018-06-28T00:09:36.775Z,84.46
2018-06-28T00:12:06.844Z,84.75
2018-06-28T00:14:35.860Z,85.07
2018-06-28T00:17:04.850Z,84.97
2018-06-28T00:19:34.084Z,84.96
2018-06-28T00:22:03.163Z,85.44
2018-06-28T00:24:32.141Z,85.18
2018-06-28T00:27:01.165Z,85.31
2018-06-28T00:29:29.933Z,85.25
2018-06-28T00:31:58.902Z,85.17
2018-06-28T00:34:27.899Z,85.45
2018-06-28T00:36:57.207Z,85.12
2018-06-28T00:39:26.472Z,85.11
2018-06-28T00:41:55.846Z,85.16
2018-06-28T00:44:24.543Z,85.35
2018-06-28T00:46:54.070Z,85.17
2018-06-28T00:49:22.815Z,85.13
2018-06-28T00:51:51.777Z,85.52
2018-06-28T00:54:20.539Z,85.27
2018-06-28T00:56:49.230Z,85.14
2018-06-28T00:59:18.208Z,85.63
2018-06-28T01:01:47.244Z,85.64
2018-06-28T01:04:15.962Z,85.40
2018-06-28T01:06:44.661Z,86.12
2018-06-28T01:09:13.623Z,85.81
2018-06-28T01:11:42.870Z,85.97
2018-06-28T01:14:11.909Z,86.06
2018-06-28T01:16:40.920Z,85.85
2018-06-28T01:19:10.170Z,85.95
2018-06-28T01:21:38.918Z,85.65
2018-06-28T01:24:07.924Z,85.61
2018-06-28T01:26:36.678Z,85.68
2018-06-28T01:29:06.283Z,85.80
2018-06-28T01:31:35.279Z,85.80
2018-06-28T01:34:04.282Z,85.56
2018-06-28T01:36:33.062Z,85.65
2018-06-28T01:39:01.786Z,85.95
2018-06-28T01:42:40.303Z,86.12
2018-06-28T01:45:09.315Z,85.76
2018-06-28T01:47:38.624Z,85.92
2018-06-28T01:50:07.685Z,86.19
2018-06-28T01:52:37.712Z,86.59
2018-06-28T01:55:06.821Z,86.55
2018-06-28T01:57:35.539Z,86.43
2018-06-28T02:00:04.973Z,86.52
2018-06-28T02:02:33.997Z,86.89
2018-06-28T02:05:02.788Z,86.84
2018-06-28T02:07:31.843Z,86.83
2018-06-28T02:10:00.604Z,87.41
2018-06-28T02:12:30.317Z,87.20
2018-06-28T02:14:59.344Z,87.25
2018-06-28T02:17:28.120Z,87.63
2018-06-28T02:19:57.148Z,87.29
2018-06-28T02:22:27.100Z,87.13
2018-06-28T02:24:56.074Z,87.17
2018-06-28T02:27:25.221Z,87.44
2018-06-28T02:29:54.017Z,87.46
2018-06-28T02:32:22.754Z,87.08
2018-06-28T02:34:51.447Z,87.50
2018-06-28T02:37:20.871Z,87.49
2018-06-28T02:39:49.572Z,87.75
2018-06-28T02:42:18.294Z,87.75
2018-06-28T02:44:47.167Z,88.11
2018-06-28T02:47:16.736Z,88.09
2018-06-28T02:49:45.798Z,88.29
2018-06-28T02:52:14.555Z,88.45
2018-06-28T02:54:43.935Z,88.45
2018-06-28T02:57:13.008Z,88.60
2018-06-28T02:59:42.343Z,88.44
2018-06-28T03:02:11.410Z,88.44
2018-06-28T03:04:40.465Z,88.24
2018-06-28T03:07:09.647Z,88.23
2018-06-28T03:09:38.917Z,88.35
2018-06-28T03:12:07.957Z,88.79
2018-06-28T03:14:37.228Z,88.63
2018-06-28T03:17:06.099Z,88.76
2018-06-28T03:19:35.152Z,88.66
2018-06-28T03:22:03.861Z,89.26
2018-06-28T03:24:32.613Z,89.11
2018-06-28T03:27:01.701Z,89.34
2018-06-28T03:29:30.801Z,88.97
2018-06-28T03:31:59.503Z,89.34
2018-06-28T03:34:28.525Z,88.94
2018-06-28T03:36:58.062Z,89.13
2018-06-28T03:39:26.880Z,88.73
2018-06-28T03:41:56.094Z,89.48
2018-06-28T03:44:25.172Z,89.57
2018-06-28T03:46:54.291Z,89.33
2018-06-28T03:49:23.386Z,89.27
2018-06-28T03:51:52.110Z,89.52
2018-06-28T03:54:21.206Z,89.20
2018-06-28T03:56:50.283Z,89.90
2018-06-28T03:59:19.388Z,89.77
2018-06-28T04:01:48.412Z,89.59
2018-06-28T04:04:17.472Z,89.69
2018-06-28T04:06:46.477Z,90.14
2018-06-28T04:09:15.827Z,90.48
2018-06-28T04:11:45.032Z,90.33
2018-06-28T04:14:14.157Z,90.66
2018-06-28T04:16:43.212Z,90.69
2018-06-28T04:19:12.248Z,91.23
2018-06-28T04:21:41.280Z,90.94
2018-06-28T04:24:10.403Z,91.44
2018-06-28T04:26:39.467Z,92.21
2018-06-28T04:29:08.171Z,91.74
2018-06-28T04:31:37.680Z,91.93
2018-06-28T04:34:06.817Z,92.04
2018-06-28T04:36:36.108Z,91.50
2018-06-28T04:39:08.263Z,91.67
2018-06-28T04:41:37.001Z,91.92
2018-06-28T04:44:06.067Z,92.39
2018-06-28T04:46:34.955Z,92.44
2018-06-28T04:49:04.396Z,92.74
2018-06-28T04:51:33.462Z,92.84
2018-06-28T04:54:02.495Z,93.00
2018-06-28T04:56:31.549Z,93.65
2018-06-28T04:59:00.441Z,93.48
2018-06-28T05:01:29.522Z,93.01
2018-06-28T05:03:58.288Z,92.84
2018-06-28T05:06:27.776Z,93.73
2018-06-28T05:08:56.765Z,94.13
2018-06-28T05:11:25.711Z,93.52
2018-06-28T05:13:54.849Z,94.13
2018-06-28T05:16:24.041Z,94.00
2018-06-28T05:18:53.187Z,94.42
2018-06-28T05:21:22.399Z,94.10
2018-06-28T05:23:51.570Z,94.72
2018-06-28T05:26:21.015Z,94.69
2018-06-28T05:28:50.361Z,94.99
2018-06-28T05:31:19.626Z,94.04
2018-06-28T05:33:48.870Z,93.47
2018-06-28T05:36:17.718Z,93.58
2018-06-28T05:38:46.801Z,92.27
2018-06-28T05:41:15.722Z,91.38
2018-06-28T05:43:44.907Z,91.41
2018-06-28T05:46:13.927Z,90.57
2018-06-28T05:48:42.751Z,90.92
2018-06-28T05:51:11.587Z,90.45
2018-06-28T05:53:40.365Z,90.57
2018-06-28T05:56:09.888Z,89.44
2018-06-28T05:58:39.018Z,88.95
2018-06-28T06:01:07.817Z,88.53
2018-06-28T06:03:36.966Z,88.12
2018-06-28T06:06:06.189Z,87.06
2018-06-28T06:08:34.979Z,87.03
2018-06-28T06:11:04.007Z,85.63
2018-06-28T06:13:32.979Z,84.69
2018-06-28T06:16:02.072Z,84.98
2018-06-28T06:18:31.212Z,85.02
2018-06-28T06:21:00.269Z,84.27
2018-06-28T06:23:29.647Z,83.86
2018-06-28T06:25:58.616Z,83.56
2018-06-28T06:28:27.795Z,82.73
2018-06-28T06:30:56.613Z,82.60
2018-06-28T06:33:25.459Z,82.44
2018-06-28T06:35:54.245Z,81.25
2018-06-28T06:38:23.346Z,80.94
2018-06-28T06:40:52.452Z,79.97
2018-06-28T06:43:21.811Z,79.02
2018-06-28T06:45:50.788Z,77.71
2018-06-28T06:48:19.788Z,77.83
2018-06-28T06:50:48.955Z,77.59
2018-06-28T06:53:18.261Z,77.59
2018-06-28T06:55:47.110Z,77.65
2018-06-28T06:58:16.144Z,77.83
2018-06-28T07:00:44.909Z,76.54
2018-06-28T07:03:14.127Z,76.06
2018-06-28T07:05:43.124Z,74.81
2018-06-28T07:08:12.197Z,75.87
2018-06-28T07:10:41.359Z,74.60
2018-06-28T07:13:10.180Z,72.85
2018-06-28T07:15:39.197Z,72.92
2018-06-28T07:18:08.296Z,71.49
2018-06-28T07:20:37.650Z,71.44
2018-06-28T07:23:06.973Z,71.43
2018-06-28T07:25:36.025Z,70.45
2018-06-28T07:28:04.828Z,71.02
2018-06-28T07:30:34.260Z,70.92
2018-06-28T07:33:03.549Z,69.51
2018-06-28T07:35:32.459Z,68.35
2018-06-28T07:38:01.325Z,68.14
2018-06-28T07:40:30.320Z,68.77
2018-06-28T07:42:59.099Z,68.60
2018-06-28T07:45:27.929Z,66.25
2018-06-28T07:47:56.770Z,66.57
2018-06-28T07:50:25.579Z,66.40
2018-06-28T07:52:55.017Z,65.96
2018-06-28T07:55:24.360Z,65.44
2018-06-28T07:57:53.302Z,65.35
2018-06-28T08:00:22.295Z,64.94
2018-06-28T08:02:51.730Z,64.49
2018-06-28T08:05:21.343Z,63.32
2018-06-28T08:07:50.858Z,63.01
2018-06-28T08:10:19.912Z,63.26
2018-06-28T08:12:48.657Z,63.10
2018-06-28T08:15:17.719Z,63.13
2018-06-28T08:17:47.166Z,61.29
2018-06-28T08:20:15.930Z,62.18
2018-06-28T08:22:44.971Z,62.40
2018-06-28T08:25:14.579Z,62.70
2018-06-28T08:27:43.476Z,61.60
2018-06-28T08:30:12.238Z,59.59
2018-06-28T08:32:41.278Z,57.39
2018-06-28T08:35:10.270Z,57.67
2018-06-28T08:37:39.255Z,58.71
2018-06-28T08:40:08.039Z,57.66
2018-06-28T08:42:37.446Z,57.59
2018-06-28T08:45:06.417Z,57.57
2018-06-28T08:47:35.972Z,56.37
2018-06-28T08:50:04.779Z,55.67
2018-06-28T08:52:33.927Z,56.43
2018-06-28T08:55:02.704Z,55.57
2018-06-28T08:57:31.589Z,56.48
2018-06-28T09:00:00.439Z,55.35
2018-06-28T09:02:30.048Z,56.74
2018-06-28T09:04:59.223Z,57.23
2018-06-28T09:07:28.091Z,55.34
2018-06-28T09:09:57.208Z,55.77
2018-06-28T09:12:26.695Z,54.07
2018-06-28T09:14:55.904Z,55.27
2018-06-28T09:17:25.210Z,54.64
2018-06-28T09:19:54.300Z,52.63
2018-06-28T09:22:23.405Z,52.89
2018-06-28T09:24:52.737Z,52.19
2018-06-28T09:27:22.052Z,51.62
2018-06-28T09:29:51.071Z,52.24
2018-06-28T09:32:19.848Z,50.08
2018-06-28T09:34:48.867Z,51.98
2018-06-28T09:37:18.072Z,52.04
2018-06-28T09:39:47.466Z,49.52
2018-06-28T09:42:16.903Z,49.55
2018-06-28T09:44:46.739Z,48.73
2018-06-28T09:47:16.195Z,48.24
2018-06-28T09:49:44.933Z,48.22
2018-06-28T09:52:14.336Z,47.96
2018-06-28T09:54:43.441Z,46.62
2018-06-28T09:57:12.479Z,45.92
2018-06-28T09:59:41.843Z,47.46
2018-06-28T10:02:10.649Z,46.12
2018-06-28T10:04:40.032Z,46.12
2018-06-28T10:07:09.199Z,45.10
2018-06-28T10:09:37.937Z,44.45
2018-06-28T10:12:07.086Z,42.98
2018-06-28T10:14:35.905Z,43.59
2018-06-28T10:17:04.689Z,42.48
2018-06-28T10:19:33.806Z,41.61
2018-06-28T10:22:02.863Z,41.37
2018-06-28T10:24:32.053Z,40.80
2018-06-28T10:27:01.190Z,40.96
2018-06-28T10:29:29.978Z,40.67
2018-06-28T10:31:58.778Z,40.42
2018-06-28T10:34:28.130Z,40.57
2018-06-28T10:36:56.875Z,40.34
2018-06-28T10:39:26.022Z,39.89
2018-06-28T10:41:54.793Z,38.95
2018-06-28T10:44:23.576Z,40.10
2018-06-28T10:46:52.683Z,37.52
2018-06-28T10:49:21.983Z,38.08
2018-06-28T10:51:51.193Z,38.79
2018-06-28T10:54:19.926Z,37.52
2018-06-28T10:56:49.026Z,38.64
2018-06-28T10:59:18.780Z,36.45
2018-06-28T11:01:48.134Z,37.08
2018-06-28T11:04:17.573Z,35.93
2018-06-28T11:06:46.357Z,36.93
2018-06-28T11:09:15.898Z,36.69
2018-06-28T11:11:44.661Z,36.04
2018-06-28T11:14:13.429Z,35.74
2018-06-28T11:16:42.461Z,34.19
2018-06-28T11:19:11.203Z,35.38
2018-06-28T11:21:39.957Z,35.08
2018-06-28T11:24:09.806Z,34.75
2018-06-28T11:26:38.634Z,34.36
2018-06-28T11:29:07.740Z,33.08
2018-06-28T11:31:36.802Z,33.98
2018-06-28T11:34:06.164Z,33.41
2018-06-28T11:36:35.395Z,33.36
2018-06-28T11:39:06.852Z,32.86
2018-06-28T11:41:35.903Z,32.92
2018-06-28T11:44:04.661Z,34.29
2018-06-28T11:46:33.859Z,35.44
2018-06-28T11:49:02.633Z,35.47
2018-06-28T11:51:31.940Z,35.47
2018-06-28T11:54:00.998Z,34.09
2018-06-28T11:56:30.129Z,33.38
2018-06-28T11:58:59.207Z,34.68
2018-06-28T12:01:28.402Z,32.86
2018-06-28T12:03:57.511Z,32.67
2018-06-28T12:06:26.495Z,31.77
2018-06-28T12:08:55.546Z,32.83
2018-06-28T12:11:24.587Z,32.58
2018-06-28T12:13:53.610Z,32.09
2018-06-28T12:16:22.661Z,31.43
2018-06-28T12:18:51.796Z,32.74
2018-06-28T12:21:20.647Z,31.94
2018-06-28T12:23:49.743Z,29.18
2018-06-28T12:26:18.526Z,30.96
2018-06-28T12:28:47.287Z,30.22
2018-06-28T12:31:16.136Z,30.65
2018-06-28T12:33:44.953Z,29.63
2018-06-28T12:36:14.322Z,31.07
2018-06-28T12:38:43.453Z,29.88
2018-06-28T12:41:12.552Z,30.03
2018-06-28T12:43:41.702Z,29.10
2018-06-28T12:46:11.159Z,29.26
2018-06-28T12:48:39.988Z,30.13
2018-06-28T12:51:09.551Z,30.67
2018-06-28T12:53:38.553Z,29.47
2018-06-28T12:56:32.596Z,30.22
2018-06-28T12:59:02.676Z,28.95
2018-06-28T13:01:32.084Z,28.82
2018-06-28T13:04:00.885Z,29.65
2018-06-28T13:06:29.780Z,29.57
2018-06-28T13:08:59.335Z,30.27
2018-06-28T13:11:28.906Z,31.45
2018-06-28T13:13:58.007Z,30.50
2018-06-28T13:16:27.834Z,31.38
2018-06-28T13:18:56.637Z,31.27
2018-06-28T13:21:25.663Z,31.92
2018-06-28T13:23:55.083Z,32.49
2018-06-28T13:26:24.452Z,32.90
2018-06-28T13:28:53.443Z,32.90
2018-06-28T13:31:22.720Z,33.50
2018-06-28T13:33:51.616Z,32.53
2018-06-28T13:36:20.411Z,32.86
2018-06-28T13:38:49.446Z,31.81
2018-06-28T13:41:19.205Z,32.75
2018-06-28T13:43:48.066Z,33.93
2018-06-28T13:46:17.220Z,33.20
2018-06-28T13:48:46.406Z,33.97
2018-06-28T13:51:15.374Z,33.17
2018-06-28T13:53:45.201Z,33.78
2018-06-28T13:56:14.370Z,32.28
2018-06-28T13:58:43.136Z,32.84
2018-06-28T14:01:12.736Z,32.33
2018-06-28T14:03:41.548Z,31.07
2018-06-28T14:06:10.377Z,30.89
2018-06-28T14:08:40.008Z,30.23
2018-06-28T14:11:08.795Z,29.48
2018-06-28T14:13:37.882Z,30.89
2018-06-28T14:16:06.751Z,29.12
2018-06-28T14:18:35.922Z,29.62
2018-06-28T14:21:04.687Z,29.45
2018-06-28T14:23:33.851Z,31.15
2018-06-28T14:26:03.260Z,30.23
2018-06-28T14:28:32.838Z,31.20
2018-06-28T14:31:02.365Z,31.39
2018-06-28T14:33:31.410Z,30.83
2018-06-28T14:36:00.507Z,30.83
2018-06-28T14:38:29.845Z,32.03
2018-06-28T14:40:58.606Z,33.54
2018-06-28T14:43:28.104Z,32.15
2018-06-28T14:45:57.730Z,31.66
2018-06-28T14:48:27.040Z,31.28
2018-06-28T14:50:56.090Z,31.23
2018-06-28T14:53:24.832Z,31.09
2018-06-28T14:55:53.601Z,32.19
2018-06-28T14:58:23.108Z,32.44
2018-06-28T15:00:51.901Z,31.89
2018-06-28T15:03:20.975Z,32.48
2018-06-28T15:05:50.551Z,30.87
2018-06-28T15:08:19.317Z,30.87
2018-06-28T15:10:48.629Z,31.96
2018-06-28T15:13:17.383Z,31.30
2018-06-28T15:15:46.137Z,31.69
2018-06-28T15:18:15.083Z,32.49
2018-06-28T15:20:43.834Z,31.73
2018-06-28T15:23:12.570Z,31.28
2018-06-28T15:25:41.998Z,30.98
2018-06-28T15:28:11.427Z,32.01
2018-06-28T15:30:40.800Z,31.09
2018-06-28T15:33:09.985Z,31.86
2018-06-28T15:35:38.909Z,30.41
2018-06-28T15:38:08.123Z,30.36
2018-06-28T15:40:37.016Z,30.22
2018-06-28T15:43:06.374Z,30.31
2018-06-28T15:45:35.673Z,29.47
2018-06-28T15:48:08.025Z,29.44
2018-06-28T15:50:36.895Z,30.47
2018-06-28T15:53:05.642Z,30.93
2018-06-28T15:55:34.790Z,30.43
2018-06-28T15:58:03.876Z,30.41
2018-06-28T16:00:32.971Z,29.51
2018-06-28T16:03:02.399Z,30.30
2018-06-28T16:05:31.467Z,28.97
2018-06-28T16:08:00.542Z,29.43
2018-06-28T16:10:29.344Z,30.84
2018-06-28T16:12:58.401Z,30.32
2018-06-28T16:15:27.169Z,30.33
2018-06-28T16:17:55.952Z,30.46
2018-06-28T16:20:25.604Z,30.49
2018-06-28T16:22:54.453Z,29.78
2018-06-28T16:25:23.371Z,30.91
2018-06-28T16:27:52.497Z,30.30
2018-06-28T16:30:21.560Z,31.14
2018-06-28T16:32:51.152Z,30.69
2018-06-28T16:35:19.882Z,31.26
2018-06-28T16:37:49.223Z,31.54
2018-06-28T16:40:18.211Z,32.11
2018-06-28T16:42:47.253Z,31.46
2018-06-28T16:45:16.011Z,31.86
2018-06-28T16:47:45.694Z,31.77
2018-06-28T16:50:14.449Z,32.43
2018-06-28T16:52:43.481Z,32.42
2018-06-28T16:55:12.896Z,31.23
2018-06-28T16:57:42.004Z,31.78
2018-06-28T17:00:11.362Z,32.45
2018-06-28T17:02:40.468Z,31.61
2018-06-28T17:05:09.218Z,31.92
2018-06-28T17:07:38.300Z,32.73
2018-06-28T17:10:07.622Z,31.26
2018-06-28T17:12:37.176Z,31.71
2018-06-28T17:15:06.451Z,31.16
2018-06-28T17:17:35.879Z,32.26
2018-06-28T17:20:05.319Z,32.27
2018-06-28T17:22:34.664Z,34.06
2018-06-28T17:25:03.783Z,33.37
2018-06-28T17:27:32.716Z,34.27
2018-06-28T17:30:02.112Z,34.43
2018-06-28T17:32:31.198Z,35.36
2018-06-28T17:35:00.887Z,36.18
2018-06-28T17:37:30.743Z,35.94
2018-06-28T17:39:59.747Z,35.85
2018-06-28T17:42:28.748Z,35.50
2018-06-28T17:44:58.530Z,36.44
2018-06-28T17:47:27.647Z,36.22
2018-06-28T17:49:56.407Z,36.00
2018-06-28T17:52:25.305Z,35.93
2018-06-28T17:54:54.660Z,36.81
2018-06-28T17:57:23.417Z,36.47
2018-06-28T17:59:52.219Z,37.32
2018-06-28T18:02:21.359Z,36.82
2018-06-28T18:04:50.274Z,36.84
2018-06-28T18:07:19.732Z,37.14
2018-06-28T18:09:50.355Z,37.92
2018-06-28T18:12:19.163Z,37.32
2018-06-28T18:14:48.216Z,38.18
2018-06-28T18:17:17.038Z,38.77
2018-06-28T18:19:46.068Z,39.16
2018-06-28T18:22:15.742Z,38.93
2018-06-28T18:24:44.826Z,39.95
2018-06-28T18:27:13.700Z,39.96
2018-06-28T18:29:42.693Z,40.57
2018-06-28T18:32:12.112Z,40.30
2018-06-28T18:34:40.943Z,40.44
2018-06-28T18:37:09.875Z,39.37
2018-06-28T18:39:38.870Z,39.10
2018-06-28T18:42:08.335Z,39.88
2018-06-28T18:44:37.559Z,39.86
2018-06-28T18:47:06.432Z,40.15
2018-06-28T18:49:35.567Z,40.89
2018-06-28T18:52:04.677Z,41.06
2018-06-28T18:54:33.505Z,41.15
2018-06-28T18:57:02.682Z,41.56
2018-06-28T18:59:32.181Z,41.79
2018-06-28T19:02:00.978Z,43.31
2018-06-28T19:04:30.173Z,44.03
2018-06-28T19:06:59.366Z,44.50
2018-06-28T19:09:33.597Z,46.04
2018-06-28T19:12:02.767Z,46.51
2018-06-28T19:14:37.101Z,46.40
2018-06-28T19:17:06.044Z,47.47
2018-06-28T19:19:34.861Z,47.20
2018-06-28T19:22:09.264Z,48.91
2018-06-28T19:24:38.233Z,48.41
2018-06-28T19:27:07.260Z,49.36
2018-06-28T19:29:41.458Z,50.33
2018-06-28T19:32:15.889Z,50.32
2018-06-28T19:34:45.895Z,50.70
2018-06-28T19:37:19.759Z,51.00
2018-06-28T19:39:53.988Z,50.97
2018-06-28T19:42:28.092Z,50.41
2018-06-28T19:44:57.744Z,50.86
2018-06-28T19:47:26.781Z,50.66
2018-06-28T19:50:00.823Z,51.29
2018-06-28T19:52:34.822Z,50.97
2018-06-28T19:55:04.354Z,51.41
2018-06-28T19:57:33.603Z,51.53
2018-06-28T20:00:02.670Z,51.60
2018-06-28T20:02:36.697Z,52.29
2018-06-28T20:05:06.560Z,52.68
2018-06-28T20:07:35.929Z,52.96
2018-06-28T20:10:05.386Z,52.89
2018-06-28T20:12:39.094Z,53.65
2018-06-28T20:15:12.921Z,54.18
2018-06-28T20:17:57.964Z,54.41
2018-06-28T20:20:27.610Z,55.45
2018-06-28T20:22:56.769Z,55.52
2018-06-28T20:25:25.755Z,56.11
2018-06-28T20:28:00.542Z,56.25
2018-06-28T20:30:34.377Z,56.61
2018-06-28T20:33:09.380Z,57.75
2018-06-28T20:35:38.375Z,58.58
2018-06-28T20:38:07.541Z,59.24
2018-06-28T20:40:37.369Z,59.48
2018-06-28T20:43:06.153Z,60.18
2018-06-28T20:45:35.305Z,60.66
2018-06-28T20:48:04.340Z,59.91
2018-06-28T20:50:33.136Z,59.80
2018-06-28T20:53:02.042Z,60.05
2018-06-28T20:55:30.805Z,60.88
2018-06-28T20:57:59.821Z,60.91
2018-06-28T21:00:28.663Z,60.96
2018-06-28T21:02:57.665Z,61.56
2018-06-28T21:05:26.504Z,61.44
2018-06-28T21:07:55.480Z,61.67
2018-06-28T21:10:25.140Z,61.91
2018-06-28T21:12:54.634Z,61.99
2018-06-28T21:15:23.431Z,62.36
2018-06-28T21:17:52.804Z,62.67
2018-06-28T21:20:21.578Z,63.04
2018-06-28T21:28:35.980Z,63.95
2018-06-28T21:31:04.976Z,64.80
2018-06-28T21:33:34.375Z,64.46
2018-06-28T21:36:03.195Z,65.11
2018-06-28T21:38:32.153Z,65.05
2018-06-28T21:41:01.371Z,65.40
2018-06-28T21:43:30.454Z,65.65
2018-06-28T21:45:59.516Z,65.72
2018-06-28T21:48:28.741Z,66.11
2018-06-28T21:50:57.679Z,66.91
2018-06-28T21:53:27.204Z,67.62
2018-06-28T21:55:56.674Z,67.45
2018-06-28T21:58:26.340Z,67.47
2018-06-28T22:00:55.215Z,67.29
2018-06-28T22:03:24.459Z,67.65
2018-06-28T22:05:53.480Z,67.73
2018-06-28T22:08:22.440Z,68.80
2018-06-28T22:10:51.679Z,69.29
2018-06-28T22:13:20.652Z,68.98
2018-06-28T22:15:49.401Z,69.48
2018-06-28T22:18:18.209Z,69.60
2018-06-28T22:20:47.062Z,70.43
2018-06-28T22:23:16.479Z,70.70
2018-06-28T22:25:45.936Z,70.85
2018-06-28T22:28:15.426Z,70.95
2018-06-28T22:30:44.518Z,71.55
2018-06-28T22:33:14.161Z,71.46
2018-06-28T22:35:43.461Z,72.45
2018-06-28T22:38:13.301Z,73.17
2018-06-28T22:40:42.547Z,73.25
2018-06-28T22:43:11.612Z,73.63
2018-06-28T22:45:40.684Z,74.99
2018-06-28T22:48:09.551Z,75.04
2018-06-28T22:50:38.766Z,75.25
2018-06-28T22:53:08.111Z,75.63
2018-06-28T22:55:37.420Z,75.92
2018-06-28T22:58:06.642Z,76.28
2018-06-28T23:00:35.930Z,76.72
2018-06-28T23:03:05.523Z,77.19
2018-06-28T23:05:34.494Z,77.04
2018-06-28T23:08:03.709Z,77.45
2018-06-28T23:10:32.897Z,77.80
2018-06-28T23:13:01.956Z,78.97
2018-06-28T23:15:31.095Z,79.24
2018-06-28T23:18:00.253Z,78.93
2018-06-28T23:20:29.423Z,79.81
2018-06-28T23:22:58.815Z,79.37
2018-06-28T23:25:28.275Z,79.73
2018-06-28T23:27:57.611Z,80.05
2018-06-28T23:30:26.772Z,79.51
2018-06-28T23:32:55.990Z,80.70
2018-06-28T23:35:24.802Z,80.74
2018-06-28T23:37:53.866Z,80.65
2018-06-28T23:40:22.744Z,80.99
2018-06-28T23:42:51.705Z,80.48
2018-06-28T23:45:20.942Z,80.23
2018-06-28T23:47:50.857Z,80.33
2018-06-28T23:50:24.622Z,80.74
2018-06-28T23:52:53.667Z,80.41
2018-06-28T23:55:23.020Z,80.48
2018-06-28T23:57:52.073Z,80.84
